sensor_id;sensor_type;location;lat;lon;timestamp;pressure;altitude;pressure_sealevel;temperature;humidity
40592;BME280;26301;42.832;23.918;2022-08-05T00:01:17;93392.56;;;16.71;71.59
40592;BME280;26301;42.832;23.918;2022-08-05T00:03:45;93392.09;;;16.64;71.56
40592;BME280;26301;42.832;23.918;2022-08-05T00:06:11;93385.88;;;16.50;71.06
40592;BME280;26301;42.832;23.918;2022-08-05T00:08:37;93357.78;;;16.31;71.43
40592;BME280;26301;42.832;23.918;2022-08-05T00:11:08;93379.63;;;16.40;72.33
40592;BME280;26301;42.832;23.918;2022-08-05T00:13:36;93365.06;;;16.29;71.98
40592;BME280;26301;42.832;23.918;2022-08-05T00:16:03;93385.63;;;16.46;71.97
40592;BME280;26301;42.832;23.918;2022-08-05T00:18:29;93358.53;;;16.27;71.74
40592;BME280;26301;42.832;23.918;2022-08-05T00:20:55;93364.28;;;16.29;71.90
40592;BME280;26301;42.832;23.918;2022-08-05T00:23:20;93331.75;;;16.11;71.74
40592;BME280;26301;42.832;23.918;2022-08-05T00:25:47;93354.63;;;16.24;72.48
40592;BME280;26301;42.832;23.918;2022-08-05T00:28:13;93354.91;;;16.22;73.08
40592;BME280;26301;42.832;23.918;2022-08-05T00:30:38;93372.34;;;16.32;73.19
40592;BME280;26301;42.832;23.918;2022-08-05T00:33:04;93374.19;;;16.27;73.92
40592;BME280;26301;42.832;23.918;2022-08-05T00:35:30;93370.81;;;16.26;74.07
40592;BME280;26301;42.832;23.918;2022-08-05T00:37:56;93372.09;;;16.23;73.28
40592;BME280;26301;42.832;23.918;2022-08-05T00:40:24;93379.16;;;16.23;73.79
40592;BME280;26301;42.832;23.918;2022-08-05T00:42:50;93356.25;;;16.05;74.29
40592;BME280;26301;42.832;23.918;2022-08-05T00:45:15;93349.22;;;16.05;73.89
40592;BME280;26301;42.832;23.918;2022-08-05T00:47:41;93379.94;;;16.23;73.65
40592;BME280;26301;42.832;23.918;2022-08-05T00:50:08;93381.50;;;16.19;74.50
40592;BME280;26301;42.832;23.918;2022-08-05T00:52:34;93365.88;;;16.09;75.27
40592;BME280;26301;42.832;23.918;2022-08-05T00:54:59;93352.34;;;15.97;75.81
40592;BME280;26301;42.832;23.918;2022-08-05T00:57:25;93353.91;;;15.93;75.74
40592;BME280;26301;42.832;23.918;2022-08-05T00:59:51;93317.19;;;15.53;76.50
40592;BME280;26301;42.832;23.918;2022-08-05T01:02:17;93347.16;;;15.82;76.17
40592;BME280;26301;42.832;23.918;2022-08-05T01:04:43;93344.81;;;15.75;76.71
40592;BME280;26301;42.832;23.918;2022-08-05T01:07:10;93363.06;;;15.80;76.68
40592;BME280;26301;42.832;23.918;2022-08-05T01:09:36;93346.41;;;15.71;76.77
40592;BME280;26301;42.832;23.918;2022-08-05T01:12:05;93362.00;;;15.76;76.97
40592;BME280;26301;42.832;23.918;2022-08-05T01:20:12;93375.03;;;15.86;77.41
40592;BME280;26301;42.832;23.918;2022-08-05T01:22:59;93366.97;;;15.83;77.61
40592;BME280;26301;42.832;23.918;2022-08-05T01:28:23;93340.34;;;15.55;79.14
40592;BME280;26301;42.832;23.918;2022-08-05T01:31:03;93340.34;;;15.55;79.03
40592;BME280;26301;42.832;23.918;2022-08-05T01:33:34;93341.94;;;15.56;79.06
40592;BME280;26301;42.832;23.918;2022-08-05T01:36:09;93352.09;;;15.63;78.63
40592;BME280;26301;42.832;23.918;2022-08-05T01:38:38;93374.25;;;15.70;78.95
40592;BME280;26301;42.832;23.918;2022-08-05T01:41:05;93363.84;;;15.70;79.44
40592;BME280;26301;42.832;23.918;2022-08-05T01:43:32;93361.50;;;15.74;79.27
40592;BME280;26301;42.832;23.918;2022-08-05T01:46:00;93363.81;;;15.75;79.29
40592;BME280;26301;42.832;23.918;2022-08-05T01:48:28;93340.91;;;15.62;78.40
40592;BME280;26301;42.832;23.918;2022-08-05T01:50:55;93359.66;;;15.74;79.60
40592;BME280;26301;42.832;23.918;2022-08-05T01:53:21;93363.06;;;15.80;78.89
40592;BME280;26301;42.832;23.918;2022-08-05T01:55:48;93361.25;;;15.70;79.38
40592;BME280;26301;42.832;23.918;2022-08-05T01:58:17;93355.22;;;15.65;78.90
40592;BME280;26301;42.832;23.918;2022-08-05T02:00:48;93359.91;;;15.63;79.80
40592;BME280;26301;42.832;23.918;2022-08-05T02:03:24;93358.59;;;15.65;79.89
40592;BME280;26301;42.832;23.918;2022-08-05T02:05:52;93351.31;;;15.67;79.62
40592;BME280;26301;42.832;23.918;2022-08-05T02:08:19;93361.22;;;15.75;79.99
40592;BME280;26301;42.832;23.918;2022-08-05T02:10:50;93358.88;;;15.69;79.74
40592;BME280;26301;42.832;23.918;2022-08-05T02:13:24;93356.28;;;15.74;79.68
40592;BME280;26301;42.832;23.918;2022-08-05T02:16:22;93355.47;;;15.63;79.67
40592;BME280;26301;42.832;23.918;2022-08-05T02:19:00;93351.31;;;15.67;80.15
40592;BME280;26301;42.832;23.918;2022-08-05T02:21:30;93346.34;;;15.66;80.13
40592;BME280;26301;42.832;23.918;2022-08-05T02:24:01;93351.31;;;15.67;80.08
40592;BME280;26301;42.832;23.918;2022-08-05T02:26:38;93348.19;;;15.65;80.71
40592;BME280;26301;42.832;23.918;2022-08-05T02:29:08;93341.66;;;15.58;81.23
40592;BME280;26301;42.832;23.918;2022-08-05T02:31:37;93345.03;;;15.58;81.17
40592;BME280;26301;42.832;23.918;2022-08-05T02:34:07;93318.00;;;15.28;82.26
40592;BME280;26301;42.832;23.918;2022-08-05T02:36:35;93326.28;;;15.30;82.60
40592;BME280;26301;42.832;23.918;2022-08-05T02:39:05;93281.25;;;14.99;83.43
40592;BME280;26301;42.832;23.918;2022-08-05T02:41:32;93344.78;;;15.34;83.27
40592;BME280;26301;42.832;23.918;2022-08-05T02:43:59;93333.84;;;15.27;83.81
40592;BME280;26301;42.832;23.918;2022-08-05T02:46:27;93334.63;;;15.27;84.37
40592;BME280;26301;42.832;23.918;2022-08-05T02:48:53;93314.06;;;15.11;83.77
40592;BME280;26301;42.832;23.918;2022-08-05T02:51:20;93332.28;;;15.21;84.39
40592;BME280;26301;42.832;23.918;2022-08-05T02:53:47;93319.50;;;15.09;84.22
40592;BME280;26301;42.832;23.918;2022-08-05T02:56:14;93323.16;;;15.13;83.41
40592;BME280;26301;42.832;23.918;2022-08-05T02:58:40;93338.25;;;15.21;83.62
40592;BME280;26301;42.832;23.918;2022-08-05T03:01:15;93284.09;;;14.82;84.66
40592;BME280;26301;42.832;23.918;2022-08-05T03:03:41;93326.03;;;15.17;84.96
40592;BME280;26301;42.832;23.918;2022-08-05T03:06:11;93338.25;;;15.16;85.62
40592;BME280;26301;42.832;23.918;2022-08-05T03:08:38;93340.09;;;15.21;85.12
40592;BME280;26301;42.832;23.918;2022-08-05T03:11:15;93344.50;;;15.15;84.04
40592;BME280;26301;42.832;23.918;2022-08-05T03:13:41;93350.75;;;15.24;82.92
40592;BME280;26301;42.832;23.918;2022-08-05T03:16:07;93339.84;;;15.22;83.41
40592;BME280;26301;42.832;23.918;2022-08-05T03:18:32;93345.56;;;15.19;83.98
40592;BME280;26301;42.832;23.918;2022-08-05T03:20:58;93330.44;;;15.11;83.93
40592;BME280;26301;42.832;23.918;2022-08-05T03:23:25;93347.88;;;15.21;83.38
40592;BME280;26301;42.832;23.918;2022-08-05T03:25:52;93346.84;;;15.27;83.03
40592;BME280;26301;42.832;23.918;2022-08-05T03:28:19;93343.72;;;15.25;83.37
40592;BME280;26301;42.832;23.918;2022-08-05T03:30:46;93342.69;;;15.26;83.06
40592;BME280;26301;42.832;23.918;2022-08-05T03:33:13;93341.41;;;15.28;83.25
40592;BME280;26301;42.832;23.918;2022-08-05T03:35:40;93313.00;;;15.22;82.47
40592;BME280;26301;42.832;23.918;2022-08-05T03:38:06;93344.78;;;15.39;83.29
40592;BME280;26301;42.832;23.918;2022-08-05T03:40:32;93323.44;;;15.27;84.17
40592;BME280;26301;42.832;23.918;2022-08-05T03:42:58;93340.09;;;15.36;83.10
40592;BME280;26301;42.832;23.918;2022-08-05T03:45:24;93328.13;;;15.20;82.46
40592;BME280;26301;42.832;23.918;2022-08-05T03:47:50;93350.25;;;15.38;82.48
40592;BME280;26301;42.832;23.918;2022-08-05T03:50:17;93333.34;;;15.35;82.18
40592;BME280;26301;42.832;23.918;2022-08-05T03:55:26;93356.00;;;15.60;81.83
40592;BME280;26301;42.832;23.918;2022-08-05T03:57:54;93352.34;;;15.61;81.75
40592;BME280;26301;42.832;23.918;2022-08-05T04:00:21;93342.44;;;15.63;81.62
40592;BME280;26301;42.832;23.918;2022-08-05T04:02:51;93329.94;;;15.55;82.17
40592;BME280;26301;42.832;23.918;2022-08-05T04:05:19;93322.41;;;15.59;82.39
40592;BME280;26301;42.832;23.918;2022-08-05T04:07:46;93323.69;;;15.61;81.73
40592;BME280;26301;42.832;23.918;2022-08-05T04:10:12;93317.47;;;15.62;81.96
40592;BME280;26301;42.832;23.918;2022-08-05T04:12:38;93345.84;;;15.89;82.02
40592;BME280;26301;42.832;23.918;2022-08-05T04:15:05;93334.38;;;15.90;82.41
40592;BME280;26301;42.832;23.918;2022-08-05T04:17:33;93342.19;;;15.95;83.08
40592;BME280;26301;42.832;23.918;2022-08-05T04:19:59;93345.56;;;16.06;82.30
40592;BME280;26301;42.832;23.918;2022-08-05T04:22:25;93349.19;;;16.15;82.45
40592;BME280;26301;42.832;23.918;2022-08-05T04:24:50;93328.88;;;16.12;82.19
40592;BME280;26301;42.832;23.918;2022-08-05T04:27:16;93338.75;;;16.20;82.64
40592;BME280;26301;42.832;23.918;2022-08-05T04:29:42;93346.00;;;16.44;82.69
40592;BME280;26301;42.832;23.918;2022-08-05T04:32:08;93348.25;;;16.71;82.36
40592;BME280;26301;42.832;23.918;2022-08-05T04:34:34;93354.88;;;17.08;82.82
40592;BME280;26301;42.832;23.918;2022-08-05T04:37:01;93298.03;;;17.00;78.39
40592;BME280;26301;42.832;23.918;2022-08-05T04:39:26;93353.75;;;17.64;78.00
40592;BME280;26301;42.832;23.918;2022-08-05T04:41:52;93343.41;;;17.82;77.56
40592;BME280;26301;42.832;23.918;2022-08-05T04:44:18;93353.00;;;18.21;76.22
40592;BME280;26301;42.832;23.918;2022-08-05T04:46:44;93333.94;;;18.45;75.30
40592;BME280;26301;42.832;23.918;2022-08-05T04:49:09;93332.47;;;18.58;73.37
40592;BME280;26301;42.832;23.918;2022-08-05T04:51:35;93343.53;;;18.98;72.86
40592;BME280;26301;42.832;23.918;2022-08-05T04:54:01;93324.53;;;19.11;71.96
40592;BME280;26301;42.832;23.918;2022-08-05T04:56:26;93330.28;;;19.46;71.45
40592;BME280;26301;42.832;23.918;2022-08-05T04:58:52;93335.44;;;19.70;70.71
40592;BME280;26301;42.832;23.918;2022-08-05T05:01:18;93334.56;;;19.93;70.69
40592;BME280;26301;42.832;23.918;2022-08-05T05:03:43;93323.13;;;20.03;69.65
40592;BME280;26301;42.832;23.918;2022-08-05T05:06:10;93314.88;;;20.23;69.03
40592;BME280;26301;42.832;23.918;2022-08-05T05:08:36;93323.84;;;20.50;67.06
40592;BME280;26301;42.832;23.918;2022-08-05T05:11:02;93324.66;;;20.64;65.71
40592;BME280;26301;42.832;23.918;2022-08-05T05:13:28;93324.22;;;20.85;65.77
40592;BME280;26301;42.832;23.918;2022-08-05T05:15:53;93269.41;;;20.69;65.47
40592;BME280;26301;42.832;23.918;2022-08-05T05:18:19;93303.66;;;21.14;64.22
40592;BME280;26301;42.832;23.918;2022-08-05T05:20:46;93326.63;;;21.45;63.21
40592;BME280;26301;42.832;23.918;2022-08-05T05:23:12;93296.34;;;21.48;62.23
40592;BME280;26301;42.832;23.918;2022-08-05T05:25:42;93319.72;;;21.72;61.59
40592;BME280;26301;42.832;23.918;2022-08-05T05:28:11;93311.28;;;21.83;61.37
40592;BME280;26301;42.832;23.918;2022-08-05T05:30:38;93315.75;;;22.05;62.13
40592;BME280;26301;42.832;23.918;2022-08-05T05:33:05;93301.44;;;22.20;65.44
40592;BME280;26301;42.832;23.918;2022-08-05T05:35:31;93311.75;;;22.39;65.21
40592;BME280;26301;42.832;23.918;2022-08-05T05:37:58;93323.16;;;22.66;66.88
40592;BME280;26301;42.832;23.918;2022-08-05T05:40:26;93321.50;;;22.87;65.49
40592;BME280;26301;42.832;23.918;2022-08-05T05:42:52;93305.41;;;22.97;62.69
40592;BME280;26301;42.832;23.918;2022-08-05T05:45:19;93321.72;;;23.34;63.86
40592;BME280;26301;42.832;23.918;2022-08-05T05:47:45;93326.06;;;23.56;59.03
40592;BME280;26301;42.832;23.918;2022-08-05T05:50:14;93325.59;;;23.80;57.16
40592;BME280;26301;42.832;23.918;2022-08-05T05:52:40;93335.03;;;23.99;57.27
40592;BME280;26301;42.832;23.918;2022-08-05T05:55:08;93318.06;;;24.17;58.02
40592;BME280;26301;42.832;23.918;2022-08-05T05:57:38;93315.38;;;24.34;55.82
40592;BME280;26301;42.832;23.918;2022-08-05T06:00:06;93312.03;;;24.55;53.40
40592;BME280;26301;42.832;23.918;2022-08-05T06:02:33;93316.31;;;24.77;53.54
40592;BME280;26301;42.832;23.918;2022-08-05T06:04:58;93332.16;;;25.06;51.95
40592;BME280;26301;42.832;23.918;2022-08-05T06:07:24;93332.31;;;25.31;50.35
40592;BME280;26301;42.832;23.918;2022-08-05T06:09:50;93333.03;;;25.40;49.64
40592;BME280;26301;42.832;23.918;2022-08-05T06:12:15;93315.53;;;25.48;47.56
40592;BME280;26301;42.832;23.918;2022-08-05T06:14:41;93318.69;;;25.62;46.35
40592;BME280;26301;42.832;23.918;2022-08-05T06:17:12;93330.97;;;25.88;45.79
40592;BME280;26301;42.832;23.918;2022-08-05T06:19:38;93308.72;;;26.01;46.98
40592;BME280;26301;42.832;23.918;2022-08-05T06:22:05;93333.59;;;26.33;45.84
40592;BME280;26301;42.832;23.918;2022-08-05T06:24:31;93315.63;;;26.39;45.19
40592;BME280;26301;42.832;23.918;2022-08-05T06:26:57;93335.28;;;26.62;41.46
40592;BME280;26301;42.832;23.918;2022-08-05T06:29:24;93321.75;;;26.76;41.64
40592;BME280;26301;42.832;23.918;2022-08-05T06:31:50;93339.06;;;26.86;43.23
40592;BME280;26301;42.832;23.918;2022-08-05T06:34:15;93317.75;;;26.95;42.23
40592;BME280;26301;42.832;23.918;2022-08-05T06:36:41;93318.94;;;27.09;39.66
40592;BME280;26301;42.832;23.918;2022-08-05T06:39:07;93326.97;;;27.38;39.28
40592;BME280;26301;42.832;23.918;2022-08-05T06:41:34;93328.81;;;27.49;38.84
40592;BME280;26301;42.832;23.918;2022-08-05T06:44:00;93319.47;;;27.40;38.17
40592;BME280;26301;42.832;23.918;2022-08-05T06:46:26;93319.78;;;27.50;39.49
40592;BME280;26301;42.832;23.918;2022-08-05T06:48:52;93329.31;;;27.67;38.11
40592;BME280;26301;42.832;23.918;2022-08-05T06:51:17;93312.81;;;27.74;38.46
40592;BME280;26301;42.832;23.918;2022-08-05T06:53:43;93328.78;;;28.02;37.60
40592;BME280;26301;42.832;23.918;2022-08-05T06:56:09;93314.91;;;28.09;38.29
40592;BME280;26301;42.832;23.918;2022-08-05T06:58:34;93270.59;;;27.97;36.64
40592;BME280;26301;42.832;23.918;2022-08-05T07:01:02;93314.28;;;28.43;36.36
40592;BME280;26301;42.832;23.918;2022-08-05T07:03:28;93316.69;;;28.64;35.83
40592;BME280;26301;42.832;23.918;2022-08-05T07:05:55;93335.00;;;28.85;34.86
40592;BME280;26301;42.832;23.918;2022-08-05T07:08:20;93330.09;;;28.87;37.25
40592;BME280;26301;42.832;23.918;2022-08-05T07:10:50;93333.28;;;28.93;34.48
40592;BME280;26301;42.832;23.918;2022-08-05T07:13:16;93298.25;;;28.71;33.28
40592;BME280;26301;42.832;23.918;2022-08-05T07:16:00;93344.53;;;29.02;33.60
40592;BME280;26301;42.832;23.918;2022-08-05T07:18:44;93346.31;;;28.98;34.24
40592;BME280;26301;42.832;23.918;2022-08-05T07:21:10;93333.78;;;29.14;35.10
40592;BME280;26301;42.832;23.918;2022-08-05T07:23:36;93326.09;;;29.29;32.89
40592;BME280;26301;42.832;23.918;2022-08-05T07:26:02;93340.09;;;29.61;32.71
40592;BME280;26301;42.832;23.918;2022-08-05T07:28:28;93344.38;;;29.66;30.94
40592;BME280;26301;42.832;23.918;2022-08-05T07:30:55;93343.28;;;29.67;31.75
40592;BME280;26301;42.832;23.918;2022-08-05T07:33:21;93346.19;;;29.61;32.01
40592;BME280;26301;42.832;23.918;2022-08-05T07:35:47;93333.47;;;29.71;31.70
40592;BME280;26301;42.832;23.918;2022-08-05T07:38:16;93329.03;;;29.78;32.24
40592;BME280;26301;42.832;23.918;2022-08-05T07:40:42;93294.22;;;29.68;33.44
40592;BME280;26301;42.832;23.918;2022-08-05T07:43:09;93327.63;;;30.04;32.63
40592;BME280;26301;42.832;23.918;2022-08-05T07:45:35;93338.47;;;30.15;32.54
40592;BME280;26301;42.832;23.918;2022-08-05T07:48:01;93349.53;;;30.36;32.24
40592;BME280;26301;42.832;23.918;2022-08-05T07:50:27;93348.50;;;30.44;31.82
40592;BME280;26301;42.832;23.918;2022-08-05T07:52:53;93342.06;;;30.45;30.79
40592;BME280;26301;42.832;23.918;2022-08-05T07:55:18;93353.31;;;30.35;31.03
40592;BME280;26301;42.832;23.918;2022-08-05T07:57:44;93344.69;;;30.42;31.48
40592;BME280;26301;42.832;23.918;2022-08-05T08:00:10;93351.06;;;30.37;31.34
40592;BME280;26301;42.832;23.918;2022-08-05T08:02:38;93337.09;;;30.44;31.61
40592;BME280;26301;42.832;23.918;2022-08-05T08:05:05;93357.88;;;30.58;32.92
40592;BME280;26301;42.832;23.918;2022-08-05T08:07:31;93343.91;;;30.64;31.24
40592;BME280;26301;42.832;23.918;2022-08-05T08:09:57;93323.59;;;30.56;30.95
40592;BME280;26301;42.832;23.918;2022-08-05T08:12:23;93338.22;;;30.66;30.99
40592;BME280;26301;42.832;23.918;2022-08-05T08:14:49;93356.41;;;30.60;30.16
40592;BME280;26301;42.832;23.918;2022-08-05T08:17:14;93334.31;;;30.37;31.28
40592;BME280;26301;42.832;23.918;2022-08-05T08:19:41;93335.97;;;30.45;30.62
40592;BME280;26301;42.832;23.918;2022-08-05T08:22:07;93353.03;;;30.63;31.92
40592;BME280;26301;42.832;23.918;2022-08-05T08:24:34;93336.84;;;30.75;30.50
40592;BME280;26301;42.832;23.918;2022-08-05T08:27:00;93330.06;;;30.78;29.89
40592;BME280;26301;42.832;23.918;2022-08-05T08:29:26;93344.84;;;30.98;29.04
40592;BME280;26301;42.832;23.918;2022-08-05T08:31:52;93348.09;;;31.11;30.06
40592;BME280;26301;42.832;23.918;2022-08-05T08:34:20;93332.22;;;31.22;28.88
40592;BME280;26301;42.832;23.918;2022-08-05T08:36:46;93333.41;;;31.25;29.64
40592;BME280;26301;42.832;23.918;2022-08-05T08:39:13;93325.97;;;31.37;30.09
40592;BME280;26301;42.832;23.918;2022-08-05T08:41:40;93351.13;;;31.66;29.87
40592;BME280;26301;42.832;23.918;2022-08-05T08:44:07;93327.41;;;31.61;28.78
40592;BME280;26301;42.832;23.918;2022-08-05T08:46:33;93332.41;;;31.63;27.70
40592;BME280;26301;42.832;23.918;2022-08-05T08:49:01;93328.03;;;31.48;28.73
40592;BME280;26301;42.832;23.918;2022-08-05T08:51:31;93341.25;;;31.71;29.20
40592;BME280;26301;42.832;23.918;2022-08-05T08:53:58;93328.63;;;31.67;29.46
40592;BME280;26301;42.832;23.918;2022-08-05T08:56:24;93320.75;;;31.78;29.80
40592;BME280;26301;42.832;23.918;2022-08-05T08:58:50;93333.44;;;31.88;29.13
40592;BME280;26301;42.832;23.918;2022-08-05T09:01:17;93338.69;;;32.11;28.67
40592;BME280;26301;42.832;23.918;2022-08-05T09:03:46;93332.66;;;32.18;27.50
40592;BME280;26301;42.832;23.918;2022-08-05T09:06:13;93325.53;;;32.29;27.64
40592;BME280;26301;42.832;23.918;2022-08-05T09:08:38;93327.66;;;32.50;27.93
40592;BME280;26301;42.832;23.918;2022-08-05T09:11:05;93333.13;;;32.65;27.87
40592;BME280;26301;42.832;23.918;2022-08-05T09:13:32;93314.84;;;32.74;27.44
40592;BME280;26301;42.832;23.918;2022-08-05T09:15:58;93323.41;;;32.97;27.43
40592;BME280;26301;42.832;23.918;2022-08-05T09:18:24;93321.44;;;32.87;26.76
40592;BME280;26301;42.832;23.918;2022-08-05T09:20:50;93315.38;;;32.97;25.96
40592;BME280;26301;42.832;23.918;2022-08-05T09:23:17;93322.44;;;33.16;25.80
40592;BME280;26301;42.832;23.918;2022-08-05T09:25:49;93317.50;;;33.22;25.84
40592;BME280;26301;42.832;23.918;2022-08-05T09:28:17;93302.16;;;33.15;26.33
40592;BME280;26301;42.832;23.918;2022-08-05T09:30:51;93320.13;;;33.18;26.49
40592;BME280;26301;42.832;23.918;2022-08-05T09:33:18;93303.69;;;33.13;27.15
40592;BME280;26301;42.832;23.918;2022-08-05T09:36:02;93296.34;;;32.99;26.05
40592;BME280;26301;42.832;23.918;2022-08-05T09:38:28;93314.34;;;33.09;27.18
40592;BME280;26301;42.832;23.918;2022-08-05T09:41:06;93307.22;;;33.28;25.78
40592;BME280;26301;42.832;23.918;2022-08-05T09:43:34;93315.91;;;33.14;26.00
40592;BME280;26301;42.832;23.918;2022-08-05T09:46:03;93305.19;;;33.10;25.49
40592;BME280;26301;42.832;23.918;2022-08-05T09:48:33;93315.38;;;32.94;26.38
40592;BME280;26301;42.832;23.918;2022-08-05T09:51:01;93315.06;;;33.03;26.67
40592;BME280;26301;42.832;23.918;2022-08-05T09:53:28;93304.78;;;33.08;26.38
40592;BME280;26301;42.832;23.918;2022-08-05T09:55:57;93290.38;;;32.68;25.58
40592;BME280;26301;42.832;23.918;2022-08-05T09:58:23;93304.19;;;32.77;28.65
40592;BME280;26301;42.832;23.918;2022-08-05T10:01:06;93298.94;;;32.92;25.83
40592;BME280;26301;42.832;23.918;2022-08-05T10:03:33;93275.16;;;32.79;26.79
40592;BME280;26301;42.832;23.918;2022-08-05T10:06:00;93303.91;;;32.45;26.81
40592;BME280;26301;42.832;23.918;2022-08-05T10:08:26;93287.97;;;32.56;27.41
40592;BME280;26301;42.832;23.918;2022-08-05T10:10:52;93289.50;;;32.57;27.21
40592;BME280;26301;42.832;23.918;2022-08-05T10:13:29;93298.34;;;32.24;26.47
40592;BME280;26301;42.832;23.918;2022-08-05T10:15:56;93278.31;;;32.03;27.62
40592;BME280;26301;42.832;23.918;2022-08-05T10:18:23;93281.66;;;32.34;27.56
40592;BME280;26301;42.832;23.918;2022-08-05T10:20:57;93288.53;;;32.79;26.43
40592;BME280;26301;42.832;23.918;2022-08-05T10:23:30;93280.53;;;32.83;26.45
40592;BME280;26301;42.832;23.918;2022-08-05T10:25:58;93262.00;;;32.53;26.56
40592;BME280;26301;42.832;23.918;2022-08-05T10:28:24;93277.06;;;32.79;27.06
40592;BME280;26301;42.832;23.918;2022-08-05T10:30:51;93290.44;;;32.34;27.65
40592;BME280;26301;42.832;23.918;2022-08-05T10:33:21;93275.31;;;31.71;27.79
40592;BME280;26301;42.832;23.918;2022-08-05T10:35:51;93265.66;;;31.33;28.63
40592;BME280;26301;42.832;23.918;2022-08-05T10:38:25;93284.91;;;31.46;28.85
40592;BME280;26301;42.832;23.918;2022-08-05T10:46:08;93286.03;;;31.14;28.77
40592;BME280;26301;42.832;23.918;2022-08-05T10:48:39;93282.72;;;31.25;29.00
40592;BME280;26301;42.832;23.918;2022-08-05T10:51:10;93280.13;;;31.32;29.18
40592;BME280;26301;42.832;23.918;2022-08-05T10:53:40;93285.88;;;31.34;28.00
40592;BME280;26301;42.832;23.918;2022-08-05T10:56:09;93282.72;;;31.25;29.05
40592;BME280;26301;42.832;23.918;2022-08-05T10:58:46;93286.66;;;31.34;29.41
40592;BME280;26301;42.832;23.918;2022-08-05T11:01:13;93268.00;;;31.34;27.63
40592;BME280;26301;42.832;23.918;2022-08-05T11:04:06;93273.63;;;31.29;28.80
40592;BME280;26301;42.832;23.918;2022-08-05T11:06:33;93251.69;;;31.13;29.47
40592;BME280;26301;42.832;23.918;2022-08-05T11:09:21;93272.25;;;31.12;30.25
40592;BME280;26301;42.832;23.918;2022-08-05T11:11:49;93250.41;;;30.76;29.05
40592;BME280;26301;42.832;23.918;2022-08-05T11:14:32;93260.28;;;30.99;32.09
40592;BME280;26301;42.832;23.918;2022-08-05T11:19:52;93249.94;;;31.54;29.53
40592;BME280;26301;42.832;23.918;2022-08-05T11:25:29;93256.94;;;32.03;28.84
40592;BME280;26301;42.832;23.918;2022-08-05T11:28:33;93241.88;;;31.88;27.59
40592;BME280;26301;42.832;23.918;2022-08-05T11:33:57;93249.34;;;32.05;25.85
40592;BME280;26301;42.832;23.918;2022-08-05T11:36:46;93251.03;;;32.24;28.28
40592;BME280;26301;42.832;23.918;2022-08-05T11:39:14;93240.72;;;32.23;26.93
40592;BME280;26301;42.832;23.918;2022-08-05T11:41:49;93226.06;;;32.47;26.39
40592;BME280;26301;42.832;23.918;2022-08-05T11:44:16;93227.28;;;32.64;25.95
40592;BME280;26301;42.832;23.918;2022-08-05T11:46:51;93224.25;;;32.62;26.26
40592;BME280;26301;42.832;23.918;2022-08-05T11:49:21;93246.41;;;32.66;26.26
40592;BME280;26301;42.832;23.918;2022-08-05T11:51:49;93249.53;;;32.75;27.05
40592;BME280;26301;42.832;23.918;2022-08-05T11:54:25;93231.88;;;32.63;25.93
40592;BME280;26301;42.832;23.918;2022-08-05T11:56:53;93240.03;;;32.33;26.40
40592;BME280;26301;42.832;23.918;2022-08-05T11:59:24;93241.97;;;32.36;27.07
40592;BME280;26301;42.832;23.918;2022-08-05T12:02:01;93224.34;;;32.28;26.33
40592;BME280;26301;42.832;23.918;2022-08-05T12:04:39;93229.69;;;32.28;26.60
40592;BME280;26301;42.832;23.918;2022-08-05T12:07:07;93228.13;;;32.23;25.86
40592;BME280;26301;42.832;23.918;2022-08-05T12:09:41;93240.19;;;32.47;29.22
40592;BME280;26301;42.832;23.918;2022-08-05T12:12:07;93233.00;;;32.59;27.27
40592;BME280;26301;42.832;23.918;2022-08-05T12:14:40;93226.94;;;32.65;26.32
40592;BME280;26301;42.832;23.918;2022-08-05T12:17:13;93225.78;;;32.66;25.92
40592;BME280;26301;42.832;23.918;2022-08-05T12:19:52;93235.06;;;32.83;29.07
40592;BME280;26301;42.832;23.918;2022-08-05T12:22:20;93222.59;;;33.05;26.34
40592;BME280;26301;42.832;23.918;2022-08-05T12:24:50;93220.78;;;33.27;24.92
40592;BME280;26301;42.832;23.918;2022-08-05T12:27:24;93207.44;;;33.31;25.10
40592;BME280;26301;42.832;23.918;2022-08-05T12:30:07;93200.88;;;33.14;24.96
40592;BME280;26301;42.832;23.918;2022-08-05T12:32:34;93219.66;;;33.24;26.81
40592;BME280;26301;42.832;23.918;2022-08-05T12:35:02;93226.47;;;33.15;25.26
40592;BME280;26301;42.832;23.918;2022-08-05T12:37:29;93224.78;;;32.89;25.58
40592;BME280;26301;42.832;23.918;2022-08-05T12:39:56;93211.78;;;32.84;25.72
40592;BME280;26301;42.832;23.918;2022-08-05T12:42:22;93193.88;;;32.95;24.93
40592;BME280;26301;42.832;23.918;2022-08-05T12:44:48;93192.09;;;33.17;26.36
40592;BME280;26301;42.832;23.918;2022-08-05T12:47:28;93211.38;;;32.82;26.76
40592;BME280;26301;42.832;23.918;2022-08-05T12:49:55;93205.47;;;32.54;25.96
40592;BME280;26301;42.832;23.918;2022-08-05T12:52:21;93195.00;;;32.35;25.93
40592;BME280;26301;42.832;23.918;2022-08-05T12:54:48;93215.94;;;32.26;26.47
40592;BME280;26301;42.832;23.918;2022-08-05T12:57:14;93209.44;;;31.86;27.41
40592;BME280;26301;42.832;23.918;2022-08-05T12:59:48;93207.22;;;31.54;27.87
40592;BME280;26301;42.832;23.918;2022-08-05T13:02:21;93202.91;;;31.12;28.05
40592;BME280;26301;42.832;23.918;2022-08-05T13:04:48;93202.41;;;31.33;27.89
40592;BME280;26301;42.832;23.918;2022-08-05T13:07:25;93199.91;;;31.48;28.43
40592;BME280;26301;42.832;23.918;2022-08-05T13:09:54;93201.09;;;31.50;28.13
40592;BME280;26301;42.832;23.918;2022-08-05T13:12:22;93190.31;;;31.43;27.26
40592;BME280;26301;42.832;23.918;2022-08-05T13:14:51;93190.63;;;31.34;30.08
40592;BME280;26301;42.832;23.918;2022-08-05T13:17:25;93164.84;;;31.49;27.31
40592;BME280;26301;42.832;23.918;2022-08-05T13:20:10;93184.94;;;31.77;28.28
40592;BME280;26301;42.832;23.918;2022-08-05T13:22:38;93181.19;;;31.81;26.05